Latest Weather Observations for Latrobe Valley

IDV60801

Issued at 10:02 am EST Saturday 27 May 2017 (issued every 30 minutes, with the page automatically refreshed every 10 minutes)

About weather observations | Map of weather stations | Latest weather observations for VIC | Other Formats
Station Details ID: 085280 Name: LATROBE VALLEY AIRPORT Lat: -38.21 Lon: 146.47 Height: 55.7 m
Data from the previous 72 hours. | See also: Recent months at Latrobe Valley
Date/Time
EST
Temp
°C
App
Temp
°C
Dew
Point
°C
Rel
Hum
%
Delta-T
°C
Wind Press
QNH
hPa
Press
MSL
hPa
Rain since
9am
mm
Dir  Spd
km/h
Gust
km/h
Spd
kts
Gust
kts
27/10:00am 10.5 10.1 9.9 96 0.3 E 2 9 1 5 1018.1 1018.1 0.0
27/09:30am 8.1 6.8 7.5 96 0.3 SW 4 7 2 4 1018.5 1018.5 0.0
27/09:00am 6.6 5.7 6.0 96 0.3 CALM 0 0 0 0 1018.8 1018.8 0.0
27/08:53am 6.4 5.4 5.8 96 0.3 CALM 0 0 0 0 1018.8 1018.8 0.0
27/08:49am 6.1 5.1 5.5 96 0.3 CALM 0 0 0 0 1018.8 1018.8 0.0
27/08:30am 5.4 4.2 4.8 96 0.3 CALM 0 0 0 0 1018.9 1018.9 0.0
27/08:00am 4.7 3.4 4.1 96 0.3 CALM 0 0 0 0 1018.8 1018.8 0.0
27/07:30am 4.3 2.2 3.7 96 0.2 SSW 4 7 2 4 1018.6 1018.6 0.0
27/07:00am 4.3 2.9 3.7 96 0.2 CALM 0 0 0 0 1018.5 1018.5 0.0
27/06:30am 4.0 2.2 3.3 95 0.3 E 2 6 1 3 1018.5 1018.5 0.0
27/06:00am 4.6 2.5 3.9 95 0.3 S 4 7 2 4 1018.5 1018.5 0.0
27/05:30am 4.6 3.3 3.9 95 0.3 CALM 0 0 0 0 1018.5 1018.5 0.0
27/05:00am 4.1 2.7 3.4 95 0.3 CALM 0 0 0 0 1018.6 1018.6 0.0
27/04:36am 4.0 2.2 3.3 95 0.3 WSW 2 7 1 4 1018.6 1018.6 0.0
27/04:35am 3.9 2.1 3.2 95 0.3 WSW 2 7 1 4 1018.6 1018.6 0.0
27/04:30am 3.5 2.0 2.8 95 0.3 CALM 0 0 0 0 1018.6 1018.6 0.0
27/04:27am 3.7 2.2 3.0 95 0.3 CALM 0 0 0 0 1018.5 1018.5 0.0
27/04:25am 3.6 2.1 2.9 95 0.3 CALM 0 0 0 0 1018.5 1018.5 0.0
27/04:12am 2.9 0.1 2.2 95 0.3 WSW 6 9 3 5 1018.7 1018.7 0.0
27/04:00am 3.0 1.0 2.1 94 0.4 ESE 2 9 1 5 1018.7 1018.7 0.0
27/03:31am 3.1 1.5 2.2 94 0.4 CALM 0 0 0 0 1018.9 1018.9 0.0
27/03:30am 3.2 1.6 2.3 94 0.4 CALM 0 0 0 0 1018.9 1018.9 0.0
27/03:00am 5.0 3.7 4.3 95 0.3 CALM 0 0 0 0 1019.1 1019.1 0.0
27/02:30am 5.3 4.1 4.4 94 0.4 CALM 0 2 0 1 1019.5 1019.5 0.0
27/02:09am 6.8 4.6 6.1 95 0.3 NE 7 9 4 5 1019.5 1019.5 0.0
27/02:00am 7.1 5.1 6.4 95 0.3 NE 6 7 3 4 1019.5 1019.5 0.0
27/01:30am 6.0 4.1 5.1 94 0.4 NE 4 7 2 4 1019.8 1019.8 0.0
27/01:25am 6.7 5.4 5.8 94 0.4 NE 2 7 1 4 1019.7 1019.7 0.0
27/01:00am 6.9 4.7 6.0 94 0.4 NNE 7 9 4 5 1019.8 1019.8 0.0
27/12:30am 6.9 5.6 6.0 94 0.4 NNW 2 7 1 4 1020.2 1020.2 0.0
27/12:00am 6.4 5.4 5.4 93 0.4 CALM 0 0 0 0 1020.2 1020.2 0.0
 
Date/Time
EST
Temp
°C
App
Temp
°C
Dew
Point
°C
Rel
Hum
%
Delta-T
°C
Wind Press
QNH
hPa
Press
MSL
hPa
Rain since
9am
mm
Dir  Spd
km/h
Gust
km/h
Spd
kts
Gust
kts
26/11:30pm 6.9 5.9 5.8 93 0.5 CALM 0 6 0 3 1020.3 1020.3 0.0
26/11:28pm 6.9 5.6 5.8 93 0.5 E 2 6 1 3 1020.3 1020.3 0.0
26/11:26pm 7.0 5.7 5.9 93 0.5 E 2 6 1 3 1020.3 1020.3 0.0
26/11:06pm 7.3 6.4 6.1 92 0.5 CALM 0 0 0 0 1020.5 1020.5 0.0
26/11:00pm 7.6 6.8 6.4 92 0.5 CALM 0 0 0 0 1020.6 1020.6 0.0
26/10:59pm 7.6 6.8 6.4 92 0.5 CALM 0 0 0 0 1020.6 1020.6 0.0
26/10:37pm 6.8 5.8 5.4 91 0.6 CALM 0 6 0 3 1020.8 1020.8 0.0
26/10:30pm 7.1 5.7 5.6 90 0.7 NE 2 7 1 4 1020.7 1020.7 0.0
26/10:00pm 8.4 7.7 6.9 90 0.7 CALM 0 0 0 0 1020.8 1020.8 0.0
26/09:30pm 8.5 6.6 6.5 87 0.9 NNE 6 7 3 4 1020.8 1020.8 0.0
26/09:00pm 10.2 8.4 7.8 85 1.2 E 7 11 4 6 1020.8 1020.8 0.0
26/08:30pm 10.6 8.8 8.0 84 1.3 E 7 11 4 6 1020.8 1020.8 0.0
26/08:00pm 10.9 9.3 8.0 82 1.4 E 6 7 3 4 1020.8 1020.8 0.0
26/07:30pm 11.4 9.3 8.1 80 1.6 E 9 13 5 7 1020.6 1020.6 0.0
26/07:00pm 11.2 10.8 8.2 82 1.5 CALM 0 0 0 0 1020.5 1020.5 0.0
26/06:30pm 12.3 11.9 8.2 76 2.0 CALM 0 0 0 0 1020.4 1020.4 0.0
26/06:00pm 13.0 12.7 8.5 74 2.2 CALM 0 0 0 0 1020.5 1020.5 0.0
26/05:30pm 13.2 12.8 8.1 71 2.5 CALM 0 0 0 0 1020.3 1020.3 0.0
26/05:00pm 14.2 12.5 7.7 65 3.2 SSW 6 7 3 4 1020.2 1020.2 0.0
26/04:30pm 15.3 14.0 7.8 61 3.8 SSW 4 7 2 4 1020.2 1020.2 0.0
26/04:00pm 16.0 15.3 8.5 61 3.8 SW 2 7 1 4 1020.1 1020.1 0.0
26/03:30pm 16.2 13.3 8.2 59 4.1 W 13 17 7 9 1020.0 1020.0 0.0
26/03:00pm 16.4 13.2 8.4 59 4.1 W 15 19 8 10 1019.9 1019.9 0.0
26/02:30pm 16.8 13.6 8.5 58 4.3 WSW 15 20 8 11 1020.0 1020.0 0.0
26/02:00pm 16.8 14.7 8.2 57 4.4 W 9 19 5 10 1020.3 1020.3 0.0
26/01:30pm 15.9 12.5 7.7 58 4.1 WSW 15 22 8 12 1020.5 1020.5 0.0
26/01:00pm 15.3 11.9 7.8 61 3.7 W 15 20 8 11 1020.8 1020.8 0.0
26/12:30pm 15.0 11.3 8.0 63 3.5 WSW 17 22 9 12 1021.3 1021.3 0.0
26/12:00pm 15.4 13.0 10.0 70 2.8 W 13 19 7 10 1021.6 1021.6 0.0
26/11:30am 14.5 11.2 8.0 65 3.2 W 15 20 8 11 1022.0 1022.0 0.0
26/11:00am 14.7 10.5 8.2 65 3.3 WSW 20 26 11 14 1022.2 1022.2 0.0
26/10:30am 14.0 11.7 10.6 80 1.8 WNW 13 19 7 10 1022.5 1022.5 0.0
26/10:00am 14.1 12.1 11.4 84 1.4 WNW 13 17 7 9 1022.3 1022.3 0.0
26/09:30am 13.5 12.3 11.7 89 1.0 W 9 13 5 7 1022.2 1022.2 0.0
26/09:00am 12.7 11.6 11.8 94 0.5 W 9 15 5 8 1022.3 1022.3 2.2
26/08:30am 11.5 8.5 10.6 94 0.5 W 17 22 9 12 1022.1 1022.1 2.2
26/08:00am 11.0 8.3 10.2 95 0.4 W 15 20 8 11 1021.7 1021.7 2.2
26/07:30am 9.8 7.9 8.9 94 0.4 WSW 9 13 5 7 1021.5 1021.5 2.2
26/07:00am 10.8 9.4 9.7 93 0.6 WSW 7 9 4 5 1021.1 1021.1 2.2
26/06:30am 11.5 9.6 10.4 93 0.6 W 11 13 6 7 1020.8 1020.8 2.2
26/06:29am 11.5 9.6 10.4 93 0.6 W 11 17 6 9 1020.8 1020.8 2.2
26/06:11am 11.7 8.7 10.8 94 0.5 WSW 17 19 9 10 1020.6 1020.6 2.0
26/06:00am 11.7 8.2 10.8 94 0.5 WSW 20 28 11 15 1020.4 1020.4 2.0
26/05:51am 12.1 8.9 11.2 94 0.5 WSW 19 24 10 13 1020.3 1020.3 2.0
26/05:30am 12.2 9.4 11.3 94 0.5 W 17 20 9 11 1019.9 1019.9 1.0
26/05:26am 12.2 9.4 11.3 94 0.5 W 17 24 9 13 1019.9 1019.9 1.0
26/05:16am 12.3 9.1 11.4 94 0.5 W 19 24 10 13 1019.8 1019.8 1.0
26/05:00am 12.3 9.1 11.4 94 0.5 WNW 19 24 10 13 1019.5 1019.5 0.8
26/04:48am 12.4 9.6 11.3 93 0.6 WNW 17 22 9 12 1019.4 1019.4 0.6
26/04:30am 12.5 9.3 11.4 93 0.6 WNW 19 20 10 11 1019.3 1019.3 0.6
26/04:00am 12.4 10.0 11.5 94 0.5 W 15 22 8 12 1019.1 1019.1 0.6
26/03:53am 12.3 9.9 11.4 94 0.5 W 15 20 8 11 1019.1 1019.1 0.6
26/03:30am 12.2 10.5 11.1 93 0.6 W 11 13 6 7 1019.1 1019.1 0.4
26/03:27am 12.3 10.6 11.2 93 0.6 W 11 13 6 7 1019.1 1019.1 0.4
26/03:06am 12.4 11.5 11.3 93 0.6 WNW 7 11 4 6 1019.1 1019.1 0.4
26/03:00am 12.4 11.1 11.1 92 0.7 W 9 15 5 8 1019.1 1019.1 0.4
26/02:30am 12.6 10.5 11.0 90 0.8 SW 13 17 7 9 1018.9 1018.9 0.4
26/02:00am 12.9 9.8 10.4 85 1.3 SW 17 20 9 11 1018.7 1018.7 0.0
26/01:30am 14.2 11.2 9.4 73 2.5 W 15 20 8 11 1018.3 1018.3 0.0
26/01:00am 13.9 11.3 9.3 74 2.3 W 13 15 7 8 1018.3 1018.3 0.0
26/12:30am 13.9 11.3 9.3 74 2.4 WNW 13 15 7 8 1018.5 1018.5 0.0
26/12:00am 14.0 11.4 9.4 74 2.4 WNW 13 20 7 11 1018.6 1018.6 0.0
 
Date/Time
EST
Temp
°C
App
Temp
°C
Dew
Point
°C
Rel
Hum
%
Delta-T
°C
Wind Press
QNH
hPa
Press
MSL
hPa
Rain since
9am
mm
Dir  Spd
km/h
Gust
km/h
Spd
kts
Gust
kts
25/11:30pm 13.7 11.2 9.6 76 2.1 W 13 19 7 10 1018.7 1018.7 0.0
25/11:00pm 13.0 10.1 9.6 80 1.7 WNW 15 20 8 11 1018.5 1018.5 0.0
25/10:30pm 13.0 9.6 9.1 77 2.0 WNW 17 20 9 11 1018.3 1018.3 0.0
25/10:00pm 12.9 9.5 9.0 77 2.0 W 17 22 9 12 1018.4 1018.4 0.0
25/09:30pm 13.2 9.7 8.9 75 2.2 WNW 17 20 9 11 1018.2 1018.2 0.0
25/09:00pm 13.3 10.2 8.8 74 2.3 W 15 20 8 11 1018.3 1018.3 0.0
25/08:30pm 13.3 10.5 8.6 73 2.4 W 13 20 7 11 1018.3 1018.3 0.0
25/08:00pm 13.4 10.2 8.5 72 2.4 W 15 20 8 11 1018.3 1018.3 0.0
25/07:30pm 14.4 10.4 8.4 67 3.0 W 19 26 10 14 1018.4 1018.4 0.0
25/07:00pm 13.6 10.6 7.8 68 2.9 WNW 13 19 7 10 1018.4 1018.4 0.0
25/06:30pm 14.2 11.5 7.5 64 3.3 W 11 15 6 8 1018.3 1018.3 0.0
25/06:00pm 14.0 11.7 7.3 64 3.3 W 9 13 5 7 1018.1 1018.1 0.0
25/05:30pm 14.7 12.0 7.3 61 3.6 W 11 15 6 8 1018.0 1018.0 0.0
25/05:00pm 14.6 11.5 7.2 61 3.6 WNW 13 19 7 10 1017.9 1017.9 0.0
25/04:30pm 15.2 11.3 7.3 59 3.9 NW 17 24 9 13 1017.9 1017.9 0.0
25/04:00pm 15.5 11.3 7.3 58 4.1 WNW 19 30 10 16 1018.0 1018.0 0.0
25/03:30pm 16.2 11.1 7.7 57 4.3 NW 24 35 13 19 1018.0 1018.0 0.0
25/03:00pm 15.7 9.7 7.2 57 4.2 NW 28 39 15 21 1017.9 1017.9 0.0
25/02:30pm 16.4 10.5 7.6 56 4.4 WNW 28 41 15 22 1018.0 1018.0 0.0
25/02:00pm 16.3 9.6 7.3 55 4.5 W 32 43 17 23 1018.2 1018.2 0.0
25/01:30pm 15.7 8.9 7.5 58 4.1 W 33 48 18 26 1018.5 1018.5 0.0
25/01:00pm 15.3 7.3 7.3 59 4.0 W 39 54 21 29 1018.8 1018.8 0.0
25/12:30pm 15.9 9.4 8.2 60 3.9 W 32 43 17 23 1018.9 1018.9 0.0
25/12:00pm 16.1 10.6 9.3 64 3.5 WSW 28 37 15 20 1019.1 1019.1 0.0
25/11:30am 16.4 13.1 9.6 64 3.6 WSW 17 26 9 14 1019.2 1019.2 0.0
25/11:00am 15.7 12.4 9.6 67 3.2 W 17 24 9 13 1019.7 1019.7 0.0
25/10:30am 15.4 11.5 9.3 67 3.1 WSW 20 28 11 15 1019.9 1019.9 0.0
25/10:00am 14.8 11.9 9.6 71 2.7 W 15 19 8 10 1020.1 1020.1 0.0
25/09:30am 13.2 11.4 9.5 78 1.9 W 9 13 5 7 1020.2 1020.2 0.0
25/09:00am 12.7 10.9 9.3 80 1.7 WSW 9 11 5 6 1020.2 1020.2 0.2
25/08:30am 12.5 10.2 9.1 80 1.7 WSW 11 15 6 8 1020.2 1020.2 0.2
25/08:00am 12.4 10.1 9.1 80 1.7 W 11 15 6 8 1020.1 1020.1 0.2
25/07:30am 12.4 9.7 8.9 79 1.8 WSW 13 17 7 9 1020.0 1020.0 0.2
25/07:00am 12.2 10.3 8.9 80 1.6 WSW 9 13 5 7 1019.8 1019.8 0.2
25/06:30am 12.2 9.9 8.9 80 1.7 WSW 11 15 6 8 1019.7 1019.7 0.2
25/06:00am 12.1 9.4 8.8 80 1.6 W 13 17 7 9 1019.5 1019.5 0.2
25/05:30am 12.1 8.9 8.6 79 1.7 W 15 20 8 11 1019.2 1019.2 0.2
25/05:00am 11.6 9.1 8.3 80 1.6 W 11 15 6 8 1019.0 1019.0 0.2
25/04:30am 11.3 8.8 8.2 81 1.5 W 11 15 6 8 1018.8 1018.8 0.2
25/04:00am 11.3 8.1 8.5 83 1.4 W 15 17 8 9 1018.7 1018.7 0.2
25/03:30am 10.1 7.4 7.5 84 1.2 WSW 11 13 6 7 1018.7 1018.7 0.2
25/03:00am 10.8 7.8 7.9 82 1.4 WNW 13 17 7 9 1018.6 1018.6 0.2
25/02:30am 11.6 8.4 8.3 80 1.6 W 15 20 8 11 1018.6 1018.6 0.2
25/02:00am 12.0 7.4 8.3 78 1.8 WNW 22 30 12 16 1018.6 1018.6 0.2
25/01:30am 11.8 8.2 8.5 80 1.6 WNW 17 24 9 13 1018.8 1018.8 0.2
25/01:00am 11.0 8.1 8.1 82 1.4 WSW 13 17 7 9 1018.7 1018.7 0.2
25/12:30am 11.4 7.4 8.1 80 1.6 W 19 26 10 14 1018.8 1018.8 0.2
25/12:00am 11.9 7.8 8.0 77 1.9 W 19 28 10 15 1018.9 1018.9 0.2
 
Date/Time
EST
Temp
°C
App
Temp
°C
Dew
Point
°C
Rel
Hum
%
Delta-T
°C
Wind Press
QNH
hPa
Press
MSL
hPa
Rain since
9am
mm
Dir  Spd
km/h
Gust
km/h
Spd
kts
Gust
kts
24/11:30pm 12.6 8.0 8.3 75 2.1 W 22 28 12 15 1019.0 1019.0 0.2
24/11:00pm 12.7 7.7 8.0 73 2.3 W 24 35 13 19 1019.0 1019.0 0.2
24/10:30pm 10.9 8.0 8.1 83 1.4 W 13 17 7 9 1019.0 1019.0 0.2
24/10:00pm 11.0 8.0 7.9 81 1.5 W 13 19 7 10 1019.0 1019.0 0.2
24/09:30pm 11.0 7.6 7.5 79 1.7 WNW 15 20 8 11 1018.8 1018.8 0.2
24/09:00pm 11.9 8.5 7.8 76 2.0 W 15 20 8 11 1018.7 1018.7 0.2
24/08:30pm 11.5 8.1 7.6 77 1.9 W 15 20 8 11 1018.4 1018.4 0.2
24/08:00pm 11.8 8.8 7.9 77 1.9 W 13 19 7 10 1018.3 1018.3 0.2
24/07:30pm 11.6 7.9 7.9 78 1.8 W 17 26 9 14 1018.2 1018.2 0.2
24/07:00pm 10.9 7.9 7.8 81 1.5 W 13 19 7 10 1018.0 1018.0 0.2
24/06:30pm 10.9 7.6 8.0 82 1.4 WNW 15 19 8 10 1018.0 1018.0 0.2
24/06:00pm 12.0 7.9 7.7 75 2.1 W 19 22 10 12 1017.8 1017.8 0.2
24/05:30pm 12.2 7.9 7.7 74 2.2 WNW 20 26 11 14 1017.2 1017.2 0.2
24/05:00pm 13.0 8.7 7.9 71 2.5 W 20 28 11 15 1016.8 1016.8 0.2
24/04:30pm 14.2 9.9 7.9 66 3.1 W 20 26 11 14 1016.2 1016.2 0.2
24/04:00pm 14.7 9.8 8.6 67 3.1 W 24 32 13 17 1015.9 1015.9 0.2
24/03:30pm 14.5 8.0 8.0 65 3.2 W 32 41 17 22 1015.3 1015.3 0.2
24/03:00pm 15.0 8.3 7.5 61 3.7 W 32 43 17 23 1014.8 1014.8 0.2
24/02:30pm 15.2 7.3 7.7 61 3.7 W 39 56 21 30 1014.4 1014.4 0.2
24/02:22pm 15.2 8.1 8.0 62 3.6 W 35 56 19 30 1014.2 1014.2 0.2
24/02:00pm 15.6 8.6 8.4 62 3.7 WNW 35 44 19 24 1014.2 1014.2 0.2
24/01:30pm 15.3 8.2 8.1 62 3.6 W 35 46 19 25 1013.9 1013.9 0.2
24/01:00pm 16.2 8.2 8.9 62 3.8 WNW 41 54 22 29 1013.8 1013.8 0.2
24/12:48pm 14.7 8.2 8.0 64 3.4 W 32 54 17 29 1013.7 1013.7 0.2
24/12:30pm 14.9 8.9 10.1 73 2.5 W 32 44 17 24 1014.0 1014.0 0.2
24/12:00pm 14.1 8.8 9.7 75 2.3 W 28 48 15 26 1014.5 1014.5 0.0
24/11:59am 14.2 8.9 9.8 75 2.3 W 28 48 15 26 1014.5 1014.5 0.0
24/11:30am 13.6 7.8 9.3 75 2.2 W 30 41 16 22 1014.7 1014.7 0.0
24/11:00am 14.9 9.1 9.3 69 2.9 W 30 39 16 21 1014.7 1014.7 0.0
24/10:30am 14.1 7.7 8.7 70 2.7 WNW 32 46 17 25 1014.6 1014.6 0.0

Other Formats:

Comma delimited format used in spreadsheet applications
http://www.bom.gov.au/fwo/IDV60801/IDV60801.94891.axf

JavaScript Object Notation format (JSON) in row-major order
http://www.bom.gov.au/fwo/IDV60801/IDV60801.94891.json